createdAt,value
2017-01-26T00:00:27.825Z,99.99
2017-01-26T00:01:38.543Z,99.99
2017-01-26T00:02:49.261Z,99.99
2017-01-26T00:03:59.978Z,99.99
2017-01-26T00:05:10.721Z,99.99
2017-01-26T00:06:21.420Z,99.99
2017-01-26T00:07:32.417Z,99.99
2017-01-26T00:08:43.134Z,99.99
2017-01-26T00:09:53.865Z,99.99
2017-01-26T00:11:04.586Z,99.99
2017-01-26T00:12:15.309Z,99.99
2017-01-26T00:13:26.047Z,99.99
2017-01-26T00:14:36.793Z,99.99
2017-01-26T00:15:47.520Z,99.99
2017-01-26T00:16:58.233Z,99.99
2017-01-26T00:18:08.952Z,99.99
2017-01-26T00:19:19.648Z,99.99
2017-01-26T00:20:30.376Z,99.99
2017-01-26T00:21:41.089Z,99.99
2017-01-26T00:22:51.789Z,99.99
2017-01-26T00:24:02.530Z,99.99
2017-01-26T00:25:13.246Z,99.99
2017-01-26T00:26:23.984Z,99.99
2017-01-26T00:27:34.723Z,99.99
2017-01-26T00:28:45.440Z,99.99
2017-01-26T00:29:56.161Z,99.99
2017-01-26T00:31:06.890Z,99.99
2017-01-26T00:32:17.603Z,99.99
2017-01-26T00:33:28.310Z,99.99
2017-01-26T00:34:39.056Z,99.99
2017-01-26T00:35:49.779Z,99.99
2017-01-26T00:37:00.746Z,99.99
2017-01-26T00:38:11.458Z,99.99
2017-01-26T00:39:22.224Z,99.99
2017-01-26T00:40:32.959Z,99.99
2017-01-26T00:41:43.728Z,99.99
2017-01-26T00:42:54.468Z,99.99
2017-01-26T00:44:05.175Z,99.99
2017-01-26T00:45:15.910Z,99.99
2017-01-26T00:46:26.642Z,99.99
2017-01-26T00:47:37.359Z,99.99
2017-01-26T00:48:48.355Z,99.99
2017-01-26T00:49:59.097Z,99.99
2017-01-26T00:51:09.846Z,99.99
2017-01-26T00:52:20.564Z,99.99
2017-01-26T00:53:31.298Z,99.99
2017-01-26T00:54:42.015Z,99.99
2017-01-26T00:55:52.786Z,99.99
2017-01-26T00:57:03.527Z,99.99
2017-01-26T00:58:14.641Z,99.99
2017-01-26T00:59:25.344Z,99.99
2017-01-26T01:00:36.065Z,99.99
2017-01-26T01:01:46.817Z,99.99
2017-01-26T01:02:57.567Z,99.99
2017-01-26T01:04:08.306Z,99.99
2017-01-26T01:05:19.428Z,99.99
2017-01-26T01:06:30.138Z,99.99
2017-01-26T01:07:40.863Z,99.99
2017-01-26T01:08:51.584Z,99.99
2017-01-26T01:10:02.313Z,99.99
2017-01-26T01:11:13.048Z,99.99
2017-01-26T01:12:23.730Z,99.99
2017-01-26T01:13:34.465Z,99.99
2017-01-26T01:14:45.177Z,99.99
2017-01-26T01:15:55.905Z,99.99
2017-01-26T01:17:06.605Z,99.99
2017-01-26T01:18:17.335Z,99.99
2017-01-26T01:19:28.047Z,99.99
2017-01-26T01:20:38.790Z,99.99
2017-01-26T01:21:49.497Z,99.99
2017-01-26T01:23:00.220Z,99.99
2017-01-26T01:24:11.202Z,99.99
2017-01-26T01:25:21.924Z,99.99
2017-01-26T01:26:32.648Z,99.99
2017-01-26T01:27:43.391Z,99.99
2017-01-26T01:28:54.121Z,99.99
2017-01-26T01:30:04.833Z,99.99
2017-01-26T01:31:15.555Z,99.99
2017-01-26T01:32:26.279Z,99.99
2017-01-26T01:33:37.007Z,99.99
2017-01-26T01:34:47.730Z,99.99
2017-01-26T01:35:58.468Z,99.99
2017-01-26T01:37:09.188Z,99.99
2017-01-26T01:38:19.917Z,99.99
2017-01-26T01:39:30.654Z,99.99
2017-01-26T01:40:41.400Z,99.99
2017-01-26T01:41:52.144Z,99.99
2017-01-26T01:43:03.236Z,99.99
2017-01-26T01:44:13.962Z,99.99
2017-01-26T01:45:24.659Z,99.99
2017-01-26T01:46:35.380Z,99.99
2017-01-26T01:47:46.372Z,99.99
2017-01-26T01:48:57.098Z,99.99
2017-01-26T01:50:07.856Z,99.99
2017-01-26T01:51:18.575Z,99.99
2017-01-26T01:52:29.319Z,99.99
2017-01-26T01:53:40.038Z,99.99
2017-01-26T01:54:50.753Z,99.99
2017-01-26T01:56:01.494Z,99.99
2017-01-26T01:57:12.204Z,99.99
2017-01-26T01:58:22.916Z,99.99
2017-01-26T01:59:33.633Z,99.99
2017-01-26T02:00:44.353Z,99.99
2017-01-26T02:01:55.062Z,99.99
2017-01-26T02:03:05.796Z,99.99
2017-01-26T02:04:16.526Z,99.99
2017-01-26T02:05:27.516Z,99.99
2017-01-26T02:06:38.272Z,99.99
2017-01-26T02:07:49.006Z,99.99
2017-01-26T02:08:59.771Z,99.99
2017-01-26T02:10:10.875Z,99.99
2017-01-26T02:11:21.659Z,99.99
2017-01-26T02:12:32.377Z,99.99
2017-01-26T02:13:43.088Z,99.99
2017-01-26T02:14:53.813Z,99.99
2017-01-26T02:16:04.590Z,99.99
2017-01-26T02:17:15.280Z,99.99
2017-01-26T02:18:25.996Z,99.99
2017-01-26T02:19:36.691Z,99.99
2017-01-26T02:20:47.395Z,99.99
2017-01-26T02:21:58.140Z,99.99
2017-01-26T02:23:09.104Z,99.99
2017-01-26T02:24:19.824Z,99.99
2017-01-26T02:25:30.531Z,99.99
2017-01-26T02:26:41.240Z,99.99
2017-01-26T02:27:51.940Z,99.99
2017-01-26T02:29:02.644Z,99.99
2017-01-26T02:30:13.364Z,99.99
2017-01-26T02:31:24.126Z,99.99
2017-01-26T02:32:34.858Z,99.99
2017-01-26T02:33:45.592Z,99.99
2017-01-26T02:34:56.298Z,99.99
2017-01-26T02:36:07.017Z,99.99
2017-01-26T02:37:17.759Z,99.99
2017-01-26T02:38:28.501Z,99.99
2017-01-26T02:39:39.188Z,99.99
2017-01-26T02:40:49.926Z,99.99
2017-01-26T02:42:00.650Z,99.99
2017-01-26T02:43:11.369Z,99.99
2017-01-26T02:44:22.090Z,99.99
2017-01-26T02:45:32.812Z,99.99
2017-01-26T02:46:43.803Z,99.99
2017-01-26T02:47:54.548Z,99.99
2017-01-26T02:49:05.268Z,99.99
2017-01-26T02:50:15.973Z,99.99
2017-01-26T02:51:26.695Z,99.99
2017-01-26T02:52:37.436Z,99.99
2017-01-26T02:53:48.175Z,99.99
2017-01-26T02:54:58.898Z,99.99
2017-01-26T02:56:09.669Z,99.99
2017-01-26T02:57:20.390Z,99.99
2017-01-26T02:58:31.147Z,99.99
2017-01-26T02:59:41.882Z,99.99
2017-01-26T03:00:52.637Z,99.99
2017-01-26T03:02:03.378Z,99.99
2017-01-26T03:03:14.144Z,99.99
2017-01-26T03:04:24.857Z,99.99
2017-01-26T03:05:35.590Z,99.99
2017-01-26T03:06:46.313Z,99.99
2017-01-26T03:07:57.047Z,99.99
2017-01-26T03:09:07.786Z,99.99
2017-01-26T03:10:18.501Z,99.99
2017-01-26T03:11:29.249Z,99.99
2017-01-26T03:12:39.984Z,99.99
2017-01-26T03:13:50.713Z,99.99
2017-01-26T03:15:01.436Z,99.99
2017-01-26T03:16:12.159Z,99.99
2017-01-26T03:17:22.905Z,99.99
2017-01-26T03:18:33.650Z,99.99
2017-01-26T03:19:44.396Z,99.99
2017-01-26T03:20:55.138Z,99.99
2017-01-26T03:22:06.112Z,99.99
2017-01-26T03:23:16.851Z,99.99
2017-01-26T03:24:27.558Z,99.99
2017-01-26T03:25:38.270Z,99.99
2017-01-26T03:26:48.987Z,99.99
2017-01-26T03:27:59.707Z,99.99
2017-01-26T03:29:10.439Z,99.99
2017-01-26T03:30:21.174Z,99.99
2017-01-26T03:31:32.263Z,99.99
2017-01-26T03:32:42.966Z,99.99
2017-01-26T03:33:53.673Z,99.99
2017-01-26T03:35:04.443Z,99.99
2017-01-26T03:36:15.179Z,99.99
2017-01-26T03:37:26.258Z,99.99
2017-01-26T03:38:37.001Z,99.99
2017-01-26T03:39:47.704Z,99.99
2017-01-26T03:40:58.416Z,99.99
2017-01-26T03:42:09.147Z,99.99
2017-01-26T03:43:19.865Z,99.99
2017-01-26T03:44:30.588Z,99.99
2017-01-26T03:45:41.578Z,99.99
2017-01-26T03:46:52.320Z,99.99
2017-01-26T03:48:03.038Z,99.99
2017-01-26T03:49:13.767Z,99.99
2017-01-26T03:50:24.490Z,99.99
2017-01-26T03:51:35.229Z,99.99
2017-01-26T03:52:45.958Z,99.99
2017-01-26T03:53:56.653Z,99.99
2017-01-26T03:55:07.375Z,99.99
2017-01-26T03:56:18.117Z,99.99
2017-01-26T03:57:28.864Z,99.99
2017-01-26T03:58:39.585Z,99.99
2017-01-26T03:59:50.333Z,99.99
2017-01-26T04:01:01.055Z,99.99
2017-01-26T04:02:12.222Z,99.99
2017-01-26T04:03:22.945Z,99.99
2017-01-26T04:04:33.668Z,99.99
2017-01-26T04:05:44.388Z,99.99
2017-01-26T04:06:55.101Z,99.99
2017-01-26T04:08:05.819Z,99.99
2017-01-26T04:09:16.793Z,99.99
2017-01-26T04:10:27.525Z,99.99
2017-01-26T04:11:38.258Z,99.99
2017-01-26T04:12:48.940Z,99.99
2017-01-26T04:13:59.678Z,99.99
2017-01-26T04:15:10.379Z,99.99
2017-01-26T04:16:21.116Z,99.99
2017-01-26T04:17:31.821Z,99.99
2017-01-26T04:18:42.558Z,99.99
2017-01-26T04:19:53.279Z,99.99
2017-01-26T04:21:03.979Z,99.99
2017-01-26T04:22:14.704Z,99.99
2017-01-26T04:23:25.450Z,99.99
2017-01-26T04:24:36.166Z,99.99
2017-01-26T04:25:46.900Z,99.99
2017-01-26T04:26:57.891Z,99.99
2017-01-26T04:28:08.633Z,99.99
2017-01-26T04:29:19.377Z,99.99
2017-01-26T04:30:30.094Z,99.99
2017-01-26T04:31:40.839Z,99.99
2017-01-26T04:32:51.591Z,99.99
2017-01-26T04:34:02.331Z,99.99
2017-01-26T04:35:13.034Z,99.99
2017-01-26T04:36:23.779Z,99.99
2017-01-26T04:37:34.498Z,99.99
2017-01-26T04:38:45.202Z,99.99
2017-01-26T04:39:55.920Z,99.99
2017-01-26T04:41:06.657Z,99.99
2017-01-26T04:42:17.353Z,99.99
2017-01-26T04:43:28.050Z,99.99
2017-01-26T04:44:38.782Z,99.99
2017-01-26T04:45:49.524Z,99.99
2017-01-26T04:47:00.226Z,99.99
2017-01-26T04:48:10.941Z,99.99
2017-01-26T04:49:21.679Z,99.99
2017-01-26T04:50:32.403Z,99.99
2017-01-26T04:51:43.131Z,99.99
2017-01-26T04:52:53.870Z,99.99
2017-01-26T04:54:04.971Z,99.99
2017-01-26T04:55:15.713Z,99.99
2017-01-26T04:56:26.742Z,99.99
2017-01-26T04:57:37.460Z,99.99
2017-01-26T04:58:48.198Z,99.99
2017-01-26T04:59:58.909Z,99.99
2017-01-26T05:01:09.625Z,99.99
2017-01-26T05:02:20.368Z,99.99
2017-01-26T05:03:31.081Z,99.99
2017-01-26T05:04:41.788Z,99.99
2017-01-26T05:05:52.502Z,99.99
2017-01-26T05:07:03.249Z,99.99
2017-01-26T05:08:13.983Z,99.99
2017-01-26T05:09:24.694Z,99.99
2017-01-26T05:10:35.411Z,99.99
2017-01-26T05:11:46.111Z,99.99
2017-01-26T05:12:56.853Z,99.99
2017-01-26T05:14:07.575Z,99.99
2017-01-26T05:15:18.295Z,99.99
2017-01-26T05:16:29.037Z,99.99
2017-01-26T05:17:39.744Z,99.99
2017-01-26T05:18:50.461Z,99.99
2017-01-26T05:20:01.176Z,99.99
2017-01-26T05:21:11.897Z,99.99
2017-01-26T05:22:22.597Z,99.99
2017-01-26T05:23:33.338Z,99.99
2017-01-26T05:24:44.068Z,99.99
2017-01-26T05:25:54.819Z,99.99
2017-01-26T05:27:05.526Z,99.99
2017-01-26T05:28:16.226Z,99.99
2017-01-26T05:29:26.973Z,99.99
2017-01-26T05:30:37.693Z,99.99
2017-01-26T05:31:49.061Z,99.99
2017-01-26T05:32:59.770Z,99.99
2017-01-26T05:34:10.482Z,99.99
2017-01-26T05:35:21.203Z,99.99
2017-01-26T05:36:31.946Z,99.99
2017-01-26T05:37:42.874Z,99.99
2017-01-26T05:38:53.587Z,99.99
2017-01-26T05:40:04.287Z,99.99
2017-01-26T05:41:15.029Z,99.99
2017-01-26T05:42:25.750Z,99.99
2017-01-26T05:43:36.454Z,99.99
2017-01-26T05:44:47.193Z,99.99
2017-01-26T05:45:57.917Z,99.99
2017-01-26T05:47:08.697Z,99.99
2017-01-26T05:48:19.392Z,99.99
2017-01-26T05:49:30.105Z,99.99
2017-01-26T05:50:40.856Z,99.99
2017-01-26T05:51:51.557Z,99.99
2017-01-26T05:53:02.276Z,99.99
2017-01-26T05:54:12.995Z,99.99
2017-01-26T05:55:23.744Z,99.99
2017-01-26T05:56:34.456Z,99.99
2017-01-26T05:57:45.174Z,99.99
2017-01-26T05:58:55.907Z,99.99
2017-01-26T06:00:06.666Z,99.99
2017-01-26T06:01:17.373Z,99.99
2017-01-26T06:02:28.115Z,99.99
2017-01-26T06:03:38.862Z,99.99
2017-01-26T06:04:49.575Z,99.99
2017-01-26T06:06:00.321Z,99.99
2017-01-26T06:07:11.295Z,99.99
2017-01-26T06:08:22.046Z,99.99
2017-01-26T06:09:32.787Z,99.99
2017-01-26T06:10:43.530Z,99.99
2017-01-26T06:11:54.255Z,99.99
2017-01-26T06:13:04.985Z,99.99
2017-01-26T06:14:15.704Z,99.99
2017-01-26T06:15:26.414Z,99.99
2017-01-26T06:16:37.143Z,99.99
2017-01-26T06:17:47.882Z,99.99
2017-01-26T06:18:58.604Z,99.99
2017-01-26T06:20:09.327Z,99.99
2017-01-26T06:21:20.069Z,99.99
2017-01-26T06:22:30.791Z,99.99
2017-01-26T06:23:41.499Z,99.99
2017-01-26T06:24:52.244Z,99.99
2017-01-26T06:26:02.982Z,99.99
2017-01-26T06:27:13.713Z,99.99
2017-01-26T06:28:24.445Z,99.99
2017-01-26T06:29:35.154Z,99.99
2017-01-26T06:30:46.112Z,99.99
2017-01-26T06:31:56.813Z,99.99
2017-01-26T06:33:07.559Z,99.99
2017-01-26T06:34:18.304Z,99.99
2017-01-26T06:35:29.031Z,99.99
2017-01-26T06:36:39.747Z,99.99
2017-01-26T06:37:50.473Z,99.99
2017-01-26T06:39:01.195Z,99.99
2017-01-26T06:40:11.909Z,99.99
2017-01-26T06:41:22.642Z,99.99
2017-01-26T06:42:33.362Z,99.99
2017-01-26T06:43:44.452Z,99.99
2017-01-26T06:44:55.168Z,99.99
2017-01-26T06:46:05.890Z,99.99
2017-01-26T06:47:16.615Z,99.99
2017-01-26T06:48:27.587Z,99.99
2017-01-26T06:49:38.312Z,99.99
2017-01-26T06:50:49.045Z,99.99
2017-01-26T06:51:59.750Z,99.99
2017-01-26T06:53:10.492Z,99.99
2017-01-26T06:54:21.209Z,99.99
2017-01-26T06:55:31.914Z,99.99
2017-01-26T06:56:42.625Z,99.99
2017-01-26T06:57:53.349Z,99.99
2017-01-26T06:59:04.457Z,99.99
2017-01-26T07:00:15.193Z,99.99
2017-01-26T07:01:25.946Z,99.99
2017-01-26T07:02:36.643Z,99.99
2017-01-26T07:03:47.343Z,99.99
2017-01-26T07:04:58.038Z,99.99
2017-01-26T07:06:08.743Z,99.99
2017-01-26T07:07:19.449Z,99.99
2017-01-26T07:08:30.196Z,99.99
2017-01-26T07:09:40.913Z,99.99
2017-01-26T07:10:51.627Z,99.99
2017-01-26T07:12:02.334Z,99.99
2017-01-26T07:13:13.088Z,99.99
2017-01-26T07:14:23.794Z,99.99
2017-01-26T07:15:34.536Z,99.99
2017-01-26T07:16:45.269Z,99.99
2017-01-26T07:17:55.979Z,99.99
2017-01-26T07:19:07.059Z,99.99
2017-01-26T07:20:17.778Z,99.99
2017-01-26T07:21:28.518Z,99.99
2017-01-26T07:22:39.252Z,99.99
2017-01-26T07:23:49.966Z,99.99
2017-01-26T07:25:00.716Z,99.99
2017-01-26T07:26:11.450Z,99.99
2017-01-26T07:27:22.156Z,99.99
2017-01-26T07:28:32.900Z,99.99
2017-01-26T07:29:44.024Z,99.99
2017-01-26T07:30:54.771Z,99.99
2017-01-26T07:32:05.488Z,99.99
2017-01-26T07:33:16.189Z,99.99
2017-01-26T07:34:26.908Z,99.99
2017-01-26T07:35:37.619Z,99.99
2017-01-26T07:36:48.318Z,99.99
2017-01-26T07:37:59.040Z,99.99
2017-01-26T07:39:09.780Z,99.99
2017-01-26T07:40:20.460Z,99.99
2017-01-26T07:41:31.177Z,99.99
2017-01-26T07:42:41.932Z,99.99
2017-01-26T07:43:52.677Z,99.99
2017-01-26T07:45:03.419Z,99.99
2017-01-26T07:46:14.546Z,99.99
2017-01-26T07:47:25.490Z,99.99
2017-01-26T07:48:36.207Z,99.99
2017-01-26T07:49:46.920Z,99.99
2017-01-26T07:50:57.620Z,99.99
2017-01-26T07:52:08.325Z,99.99
2017-01-26T07:53:19.058Z,99.99
2017-01-26T07:54:29.790Z,99.99
2017-01-26T07:55:40.504Z,99.99
2017-01-26T07:56:51.257Z,99.99
2017-01-26T07:58:01.971Z,99.99
2017-01-26T07:59:12.944Z,99.99
2017-01-26T08:00:23.664Z,99.99
2017-01-26T08:01:34.392Z,99.99
2017-01-26T08:02:45.104Z,99.99
2017-01-26T08:03:55.851Z,99.99
2017-01-26T08:05:06.578Z,99.99
2017-01-26T08:06:17.294Z,99.99
2017-01-26T08:07:28.023Z,99.99
2017-01-26T08:08:38.731Z,99.99
2017-01-26T08:09:49.460Z,99.99
2017-01-26T08:11:00.174Z,99.99
2017-01-26T08:12:10.897Z,99.99
2017-01-26T08:13:21.643Z,99.99
2017-01-26T08:14:32.365Z,99.99
2017-01-26T08:15:43.092Z,99.99
2017-01-26T08:16:53.818Z,99.99
2017-01-26T08:18:04.549Z,99.99
2017-01-26T08:19:15.254Z,99.99
2017-01-26T08:20:25.991Z,99.99
2017-01-26T08:21:36.690Z,99.99
2017-01-26T08:22:47.417Z,99.99
2017-01-26T08:23:58.155Z,99.99
2017-01-26T08:25:08.854Z,99.99
2017-01-26T08:26:19.571Z,99.99
2017-01-26T08:27:30.293Z,99.99
2017-01-26T08:28:41.016Z,99.99
2017-01-26T08:29:51.742Z,99.99
2017-01-26T08:31:02.488Z,99.99
2017-01-26T08:32:13.209Z,99.99
2017-01-26T08:33:23.952Z,99.99
2017-01-26T08:34:34.696Z,99.99
2017-01-26T08:35:45.440Z,99.99
2017-01-26T08:36:56.165Z,99.99
2017-01-26T08:38:06.918Z,99.99
2017-01-26T08:39:17.653Z,99.99
2017-01-26T08:40:28.388Z,99.99
2017-01-26T08:41:39.125Z,99.99
2017-01-26T08:42:49.817Z,99.99
2017-01-26T08:44:00.527Z,99.99
2017-01-26T08:45:11.273Z,99.99
2017-01-26T08:46:21.993Z,99.99
2017-01-26T08:47:32.729Z,99.99
2017-01-26T08:48:43.465Z,99.99
2017-01-26T08:49:54.202Z,99.99
2017-01-26T08:51:04.923Z,99.99
2017-01-26T08:52:15.673Z,99.99
2017-01-26T08:53:26.407Z,99.99
2017-01-26T08:54:37.151Z,99.99
2017-01-26T08:55:47.846Z,99.99
2017-01-26T08:56:58.974Z,99.99
2017-01-26T08:58:09.746Z,99.99
2017-01-26T08:59:20.473Z,99.99
2017-01-26T09:00:31.215Z,99.99
2017-01-26T09:01:41.908Z,99.99
2017-01-26T09:02:52.627Z,99.99
2017-01-26T09:04:03.351Z,99.99
2017-01-26T09:05:14.077Z,99.99
2017-01-26T09:06:24.779Z,99.99
2017-01-26T09:07:35.485Z,99.99
2017-01-26T09:08:46.190Z,99.99
2017-01-26T09:09:56.948Z,99.99
2017-01-26T09:11:08.054Z,99.99
2017-01-26T09:12:18.774Z,99.99
2017-01-26T09:13:29.511Z,99.99
2017-01-26T09:14:40.235Z,99.99
2017-01-26T09:15:50.954Z,99.99
2017-01-26T09:17:01.665Z,99.99
2017-01-26T09:18:12.371Z,99.99
2017-01-26T09:19:23.099Z,99.99
2017-01-26T09:20:33.815Z,99.99
2017-01-26T09:21:44.570Z,99.99
2017-01-26T09:22:55.291Z,99.99
2017-01-26T09:24:06.008Z,99.99
2017-01-26T09:25:16.733Z,99.99
2017-01-26T09:26:27.479Z,99.99
2017-01-26T09:27:38.214Z,99.99
2017-01-26T09:28:48.942Z,99.99
2017-01-26T09:29:59.667Z,99.99
2017-01-26T09:31:10.376Z,99.99
2017-01-26T09:32:21.086Z,99.99
2017-01-26T09:33:31.830Z,99.99
2017-01-26T09:34:42.542Z,99.99
2017-01-26T09:35:53.272Z,99.99
2017-01-26T09:37:04.006Z,99.99
2017-01-26T09:38:14.732Z,99.99
2017-01-26T09:39:25.705Z,99.99
2017-01-26T09:40:36.428Z,99.99
2017-01-26T09:41:47.160Z,99.99
2017-01-26T09:42:57.915Z,99.99
2017-01-26T09:44:08.673Z,99.99
2017-01-26T09:45:19.396Z,99.99
2017-01-26T09:46:30.162Z,99.99
2017-01-26T09:47:40.902Z,99.99
2017-01-26T09:48:51.623Z,99.99
2017-01-26T09:50:02.370Z,99.99
2017-01-26T09:51:13.110Z,99.99
2017-01-26T09:52:23.830Z,99.99
2017-01-26T09:53:34.562Z,99.99
2017-01-26T09:54:45.280Z,99.99
2017-01-26T09:55:56.403Z,99.99
2017-01-26T09:57:07.389Z,99.99
2017-01-26T09:58:18.112Z,99.99
2017-01-26T09:59:28.857Z,99.99
2017-01-26T10:00:39.579Z,99.99
2017-01-26T10:01:50.346Z,99.99
2017-01-26T10:03:01.054Z,99.99
2017-01-26T10:04:11.789Z,99.99
2017-01-26T10:05:22.537Z,99.99
2017-01-26T10:06:33.289Z,99.99
2017-01-26T10:07:44.013Z,99.99
2017-01-26T10:08:54.758Z,99.99
2017-01-26T10:10:05.493Z,99.99
2017-01-26T10:11:16.214Z,99.99
2017-01-26T10:12:26.912Z,99.99
2017-01-26T10:13:37.614Z,99.99
2017-01-26T10:14:48.337Z,99.99
2017-01-26T10:15:59.034Z,99.99
2017-01-26T10:17:10.161Z,99.99
2017-01-26T10:18:21.305Z,99.99
2017-01-26T10:19:32.023Z,99.99
2017-01-26T10:20:42.756Z,99.99
2017-01-26T10:21:53.471Z,99.99
2017-01-26T10:23:04.185Z,99.99
2017-01-26T10:24:14.902Z,99.99
2017-01-26T10:25:25.618Z,99.99
2017-01-26T10:26:36.366Z,99.99
2017-01-26T10:27:47.118Z,99.99
2017-01-26T10:28:57.858Z,99.99
2017-01-26T10:30:08.565Z,99.99
2017-01-26T10:31:19.299Z,99.99
2017-01-26T10:32:30.006Z,99.99
2017-01-26T10:33:40.762Z,99.99
2017-01-26T10:34:51.498Z,99.99
2017-01-26T10:36:02.232Z,99.99
2017-01-26T10:37:12.949Z,99.99
2017-01-26T10:38:24.324Z,99.99
2017-01-26T10:39:35.053Z,99.99
2017-01-26T10:40:45.772Z,99.99
2017-01-26T10:41:56.469Z,99.99
2017-01-26T10:43:07.216Z,99.99
2017-01-26T10:44:17.953Z,99.99
2017-01-26T10:45:28.683Z,99.99
2017-01-26T10:46:39.400Z,99.99
2017-01-26T10:47:50.138Z,99.99
2017-01-26T10:49:00.859Z,99.99
2017-01-26T10:50:11.583Z,99.99
2017-01-26T10:51:22.330Z,99.99
2017-01-26T10:52:33.055Z,99.99
2017-01-26T10:53:43.780Z,99.99
2017-01-26T10:54:54.493Z,99.99
2017-01-26T10:56:05.214Z,99.99
2017-01-26T10:57:15.966Z,99.99
2017-01-26T10:58:26.708Z,99.99
2017-01-26T10:59:37.457Z,99.99
2017-01-26T11:00:48.173Z,99.99
2017-01-26T11:01:58.877Z,99.99
2017-01-26T11:03:09.590Z,99.99
2017-01-26T11:04:20.306Z,99.71
2017-01-26T11:05:31.028Z,99.33
2017-01-26T11:06:41.732Z,99.81
2017-01-26T11:07:52.474Z,99.76
2017-01-26T11:09:03.200Z,99.52
2017-01-26T11:10:14.288Z,99.81
2017-01-26T11:11:25.007Z,99.81
2017-01-26T11:12:35.762Z,99.71
2017-01-26T11:13:46.483Z,99.05
2017-01-26T11:14:57.208Z,98.77
2017-01-26T11:16:07.945Z,98.86
2017-01-26T11:17:18.675Z,98.49
2017-01-26T11:18:29.399Z,99.05
2017-01-26T11:19:40.105Z,99.71
2017-01-26T11:20:50.805Z,99.52
2017-01-26T11:22:01.553Z,98.68
2017-01-26T11:23:12.304Z,98.86
2017-01-26T11:24:23.042Z,98.91
2017-01-26T11:25:33.770Z,98.06
2017-01-26T11:26:44.912Z,96.55
2017-01-26T11:27:55.646Z,96.26
2017-01-26T11:29:06.376Z,96.17
2017-01-26T11:30:17.103Z,95.88
2017-01-26T11:31:27.852Z,94.93
2017-01-26T11:32:38.601Z,95.03
2017-01-26T11:33:49.344Z,95.98
2017-01-26T11:35:00.057Z,95.79
2017-01-26T11:36:10.802Z,95.31
2017-01-26T11:37:21.559Z,95.79
2017-01-26T11:38:32.666Z,95.22
2017-01-26T11:39:56.890Z,95.03
2017-01-26T11:41:07.633Z,94.56
2017-01-26T11:42:18.359Z,95.03
2017-01-26T11:43:29.111Z,93.8
2017-01-26T11:44:39.833Z,94.37
2017-01-26T11:45:50.548Z,94.27
2017-01-26T11:47:01.649Z,94.27
2017-01-26T11:48:12.384Z,94.46
2017-01-26T11:49:23.117Z,94.56
2017-01-26T11:50:33.863Z,94.51
2017-01-26T11:51:44.597Z,93.27
2017-01-26T11:52:55.319Z,92.61
2017-01-26T11:54:06.046Z,92.14
2017-01-26T11:55:16.772Z,91.85
2017-01-26T11:56:27.487Z,91.76
2017-01-26T11:57:38.234Z,92.33
2017-01-26T11:58:49.010Z,92.33
2017-01-26T11:59:59.730Z,91.09
2017-01-26T12:01:10.469Z,91.28
2017-01-26T12:02:21.210Z,92.23
2017-01-26T12:03:32.318Z,91.38
2017-01-26T12:04:43.056Z,90.81
2017-01-26T12:05:53.789Z,91.19
2017-01-26T12:07:04.505Z,91
2017-01-26T12:08:15.244Z,91.85
2017-01-26T12:09:25.961Z,91.09
2017-01-26T12:10:36.686Z,91.19
2017-01-26T12:11:47.412Z,90.53
2017-01-26T12:12:58.155Z,91.66
2017-01-26T12:14:08.900Z,92.04
2017-01-26T12:15:19.618Z,91.57
2017-01-26T12:16:30.348Z,91.85
2017-01-26T12:17:41.345Z,92.33
2017-01-26T12:18:52.065Z,92.23
2017-01-26T12:20:02.784Z,91.38
2017-01-26T12:21:13.502Z,90.62
2017-01-26T12:22:24.246Z,91.66
2017-01-26T12:23:34.964Z,91.95
2017-01-26T12:24:45.673Z,91
2017-01-26T12:25:56.409Z,91.38
2017-01-26T12:27:07.132Z,91.19
2017-01-26T12:28:17.876Z,91.19
2017-01-26T12:29:28.606Z,90.34
2017-01-26T12:30:39.326Z,91.19
2017-01-26T12:31:50.050Z,91.66
2017-01-26T12:33:00.793Z,91.19
2017-01-26T12:34:11.518Z,91.85
2017-01-26T12:35:22.627Z,91.85
2017-01-26T12:36:33.744Z,91.76
2017-01-26T12:37:44.489Z,92.23
2017-01-26T12:38:55.214Z,91.85
2017-01-26T12:40:05.949Z,91.38
2017-01-26T12:41:16.662Z,90.53
2017-01-26T12:42:27.400Z,91.19
2017-01-26T12:43:38.131Z,91.47
2017-01-26T12:44:48.844Z,90.72
2017-01-26T12:45:59.598Z,91.09
2017-01-26T12:47:10.318Z,90.15
2017-01-26T12:48:21.060Z,90.43
2017-01-26T12:49:31.778Z,90.24
2017-01-26T12:50:42.495Z,89.77
2017-01-26T12:51:53.221Z,90.15
2017-01-26T12:53:03.941Z,90.62
2017-01-26T12:54:15.083Z,91.05
2017-01-26T12:55:25.790Z,90.77
2017-01-26T12:56:36.508Z,90.95
2017-01-26T12:57:47.245Z,91.62
2017-01-26T12:58:57.977Z,91.71
2017-01-26T13:00:08.715Z,91.33
2017-01-26T13:01:19.442Z,90.67
2017-01-26T13:02:30.188Z,91.09
2017-01-26T13:03:40.914Z,90.39
2017-01-26T13:04:51.651Z,90.2
2017-01-26T13:06:02.766Z,90.95
2017-01-26T13:07:13.513Z,91.71
2017-01-26T13:08:24.232Z,92.09
2017-01-26T13:09:34.966Z,92.09
2017-01-26T13:10:45.683Z,91.9
2017-01-26T13:11:56.424Z,91.71
2017-01-26T13:13:07.146Z,91.81
2017-01-26T13:14:17.871Z,92
2017-01-26T13:15:28.620Z,92
2017-01-26T13:16:39.358Z,92
2017-01-26T13:17:50.076Z,92.19
2017-01-26T13:19:00.798Z,91.81
2017-01-26T13:20:11.552Z,92.19
2017-01-26T13:21:22.305Z,91.9
2017-01-26T13:22:33.402Z,91.62
2017-01-26T13:23:44.134Z,91.9
2017-01-26T13:24:54.860Z,91.9
2017-01-26T13:26:05.602Z,91.52
2017-01-26T13:27:16.726Z,92.09
2017-01-26T13:28:29.358Z,92.57
2017-01-26T13:29:42.000Z,93.23
2017-01-26T13:30:55.014Z,92.85
2017-01-26T13:32:07.280Z,92.85
2017-01-26T13:33:19.159Z,92.57
2017-01-26T13:34:31.797Z,93.42
2017-01-26T13:35:44.842Z,93.32
2017-01-26T13:36:56.718Z,92.57
2017-01-26T13:38:09.397Z,92.85
2017-01-26T13:39:22.051Z,92.71
2017-01-26T13:40:35.058Z,92.71
2017-01-26T13:41:47.701Z,93.18
2017-01-26T13:43:00.348Z,93.27
2017-01-26T13:44:13.014Z,93.27
2017-01-26T13:45:25.690Z,93.65
2017-01-26T13:46:38.713Z,93.56
2017-01-26T13:47:51.335Z,93.46
2017-01-26T13:49:03.578Z,93.65
2017-01-26T13:50:16.630Z,93.94
2017-01-26T13:51:28.895Z,93.94
2017-01-26T13:52:41.548Z,94.6
2017-01-26T13:53:54.217Z,93.75
2017-01-26T13:55:07.231Z,94.04
2017-01-26T13:56:19.877Z,93.94
2017-01-26T13:57:32.913Z,94.04
2017-01-26T13:58:45.546Z,94.42
2017-01-26T13:59:58.574Z,94.7
2017-01-26T14:01:11.588Z,94.89
2017-01-26T14:02:24.241Z,95.07
2017-01-26T14:03:36.886Z,95.36
2017-01-26T14:04:49.901Z,94.7
2017-01-26T14:06:02.194Z,94.51
2017-01-26T14:07:14.843Z,94.89
2017-01-26T14:08:27.879Z,95.45
2017-01-26T14:09:40.534Z,95.26
2017-01-26T14:10:53.577Z,94.98
2017-01-26T14:12:06.198Z,95.64
2017-01-26T14:13:18.449Z,95.45
2017-01-26T14:14:31.122Z,95.45
2017-01-26T14:15:44.157Z,95.36
2017-01-26T14:16:56.787Z,95.36
2017-01-26T14:18:09.057Z,96.4
2017-01-26T14:19:21.701Z,96.16
2017-01-26T14:20:34.352Z,96.59
2017-01-26T14:21:46.968Z,96.59
2017-01-26T14:22:59.991Z,96.78
2017-01-26T14:24:13.034Z,96.31
2017-01-26T14:25:25.658Z,96.59
2017-01-26T14:26:38.678Z,96.69
2017-01-26T14:27:51.690Z,96.31
2017-01-26T14:29:04.729Z,96.5
2017-01-26T14:30:16.993Z,96.35
2017-01-26T14:31:29.659Z,96.73
2017-01-26T14:32:42.685Z,96.64
2017-01-26T14:33:55.334Z,96.64
2017-01-26T14:35:08.371Z,96.64
2017-01-26T14:36:20.260Z,96.73
2017-01-26T14:37:33.293Z,97.02
2017-01-26T14:38:46.310Z,97.02
2017-01-26T14:39:59.310Z,97.11
2017-01-26T14:41:11.955Z,97.11
2017-01-26T14:42:24.629Z,97.39
2017-01-26T14:43:37.275Z,97.39
2017-01-26T14:44:50.301Z,97.3
2017-01-26T14:46:02.990Z,97.2
2017-01-26T14:47:15.638Z,97.39
2017-01-26T14:48:28.283Z,97.58
2017-01-26T14:50:53.166Z,97.87
2017-01-26T14:52:05.423Z,98.15
2017-01-26T14:53:17.679Z,98.06
2017-01-26T14:54:30.709Z,98.25
2017-01-26T14:55:43.777Z,97.77
2017-01-26T14:56:56.826Z,97.87
2017-01-26T14:58:09.065Z,97.77
2017-01-26T14:59:21.717Z,97.87
2017-01-26T15:00:34.759Z,97.68
2017-01-26T15:01:47.391Z,97.68
2017-01-26T15:03:00.404Z,97.96
2017-01-26T15:04:13.051Z,98.34
2017-01-26T15:05:25.679Z,98.15
2017-01-26T15:06:38.739Z,98.34
2017-01-26T15:07:51.764Z,98.44
2017-01-26T15:09:04.815Z,98.39
2017-01-26T15:10:17.859Z,98.58
2017-01-26T15:11:30.904Z,99.05
2017-01-26T15:12:43.954Z,99.15
2017-01-26T15:13:56.997Z,99.24
2017-01-26T15:15:10.017Z,99.24
2017-01-26T15:16:22.656Z,99.15